sensor_id;sensor_type;location;lat;lon;timestamp;P1;durP1;ratioP1;P2;durP2;ratioP2
16326;SDS011;34812;49.846;9.610;2023-04-03T00:00:01;6.67;;;3.83;;
16326;SDS011;34812;49.846;9.610;2023-04-03T00:01:06;3.90;;;3.60;;
16326;SDS011;34812;49.846;9.610;2023-04-03T00:02:08;4.73;;;3.93;;
16326;SDS011;34812;49.846;9.610;2023-04-03T00:03:09;4.27;;;3.80;;
16326;SDS011;34812;49.846;9.610;2023-04-03T00:04:11;4.07;;;3.77;;
16326;SDS011;34812;49.846;9.610;2023-04-03T00:05:12;3.97;;;3.67;;
16326;SDS011;34812;49.846;9.610;2023-04-03T00:06:14;4.97;;;4.33;;
16326;SDS011;34812;49.846;9.610;2023-04-03T00:07:14;3.97;;;3.53;;
16326;SDS011;34812;49.846;9.610;2023-04-03T00:08:18;5.43;;;4.90;;
16326;SDS011;34812;49.846;9.610;2023-04-03T00:09:19;4.33;;;3.93;;
16326;SDS011;34812;49.846;9.610;2023-04-03T00:10:21;4.63;;;4.17;;
16326;SDS011;34812;49.846;9.610;2023-04-03T00:11:22;4.67;;;3.90;;
16326;SDS011;34812;49.846;9.610;2023-04-03T00:12:23;6.27;;;4.03;;
16326;SDS011;34812;49.846;9.610;2023-04-03T00:13:24;4.93;;;3.60;;
16326;SDS011;34812;49.846;9.610;2023-04-03T00:14:26;4.87;;;4.27;;
16326;SDS011;34812;49.846;9.610;2023-04-03T00:15:27;6.77;;;4.07;;
16326;SDS011;34812;49.846;9.610;2023-04-03T00:16:29;4.63;;;4.20;;
16326;SDS011;34812;49.846;9.610;2023-04-03T00:17:30;5.97;;;4.20;;
16326;SDS011;34812;49.846;9.610;2023-04-03T00:18:31;4.37;;;4.03;;
16326;SDS011;34812;49.846;9.610;2023-04-03T00:19:32;4.10;;;3.53;;
16326;SDS011;34812;49.846;9.610;2023-04-03T00:20:35;4.43;;;4.03;;
16326;SDS011;34812;49.846;9.610;2023-04-03T00:21:35;5.20;;;4.13;;
16326;SDS011;34812;49.846;9.610;2023-04-03T00:22:37;4.27;;;3.87;;
16326;SDS011;34812;49.846;9.610;2023-04-03T00:23:39;4.80;;;3.97;;
16326;SDS011;34812;49.846;9.610;2023-04-03T00:24:41;5.53;;;4.10;;
16326;SDS011;34812;49.846;9.610;2023-04-03T00:25:42;4.77;;;4.27;;
16326;SDS011;34812;49.846;9.610;2023-04-03T00:26:44;4.13;;;3.83;;
16326;SDS011;34812;49.846;9.610;2023-04-03T00:27:45;4.77;;;4.37;;
16326;SDS011;34812;49.846;9.610;2023-04-03T00:28:47;5.10;;;4.50;;
16326;SDS011;34812;49.846;9.610;2023-04-03T00:29:48;6.23;;;4.07;;
16326;SDS011;34812;49.846;9.610;2023-04-03T00:30:50;4.57;;;4.17;;
16326;SDS011;34812;49.846;9.610;2023-04-03T00:31:51;5.73;;;4.60;;
16326;SDS011;34812;49.846;9.610;2023-04-03T00:32:53;5.33;;;3.97;;
16326;SDS011;34812;49.846;9.610;2023-04-03T00:33:54;4.93;;;4.50;;
16326;SDS011;34812;49.846;9.610;2023-04-03T00:34:56;4.93;;;4.43;;
16326;SDS011;34812;49.846;9.610;2023-04-03T00:35:57;5.33;;;3.80;;
16326;SDS011;34812;49.846;9.610;2023-04-03T00:36:59;5.30;;;4.20;;
16326;SDS011;34812;49.846;9.610;2023-04-03T00:38:00;6.33;;;4.13;;
16326;SDS011;34812;49.846;9.610;2023-04-03T00:39:03;4.30;;;4.00;;
16326;SDS011;34812;49.846;9.610;2023-04-03T00:40:05;4.63;;;4.20;;
16326;SDS011;34812;49.846;9.610;2023-04-03T00:41:08;5.53;;;4.60;;
16326;SDS011;34812;49.846;9.610;2023-04-03T00:42:09;6.37;;;4.17;;
16326;SDS011;34812;49.846;9.610;2023-04-03T00:43:11;5.60;;;4.33;;
16326;SDS011;34812;49.846;9.610;2023-04-03T00:44:21;4.33;;;3.97;;
16326;SDS011;34812;49.846;9.610;2023-04-03T00:45:43;5.03;;;4.47;;
16326;SDS011;34812;49.846;9.610;2023-04-03T00:46:47;4.63;;;3.97;;
16326;SDS011;34812;49.846;9.610;2023-04-03T00:47:48;6.23;;;4.20;;
16326;SDS011;34812;49.846;9.610;2023-04-03T00:48:51;4.67;;;4.20;;
16326;SDS011;34812;49.846;9.610;2023-04-03T00:49:53;6.40;;;4.27;;
16326;SDS011;34812;49.846;9.610;2023-04-03T00:50:53;4.80;;;3.93;;
16326;SDS011;34812;49.846;9.610;2023-04-03T00:51:56;5.53;;;4.10;;
16326;SDS011;34812;49.846;9.610;2023-04-03T00:52:58;5.17;;;4.30;;
16326;SDS011;34812;49.846;9.610;2023-04-03T00:54:00;4.53;;;4.23;;
16326;SDS011;34812;49.846;9.610;2023-04-03T00:55:07;4.80;;;4.33;;
16326;SDS011;34812;49.846;9.610;2023-04-03T00:56:10;5.63;;;5.17;;
16326;SDS011;34812;49.846;9.610;2023-04-03T00:57:16;4.87;;;4.47;;
16326;SDS011;34812;49.846;9.610;2023-04-03T00:58:18;7.83;;;4.90;;
16326;SDS011;34812;49.846;9.610;2023-04-03T00:59:23;6.03;;;4.27;;
16326;SDS011;34812;49.846;9.610;2023-04-03T01:00:27;4.30;;;4.00;;
16326;SDS011;34812;49.846;9.610;2023-04-03T01:01:29;4.43;;;4.13;;
16326;SDS011;34812;49.846;9.610;2023-04-03T01:02:30;4.57;;;4.17;;
16326;SDS011;34812;49.846;9.610;2023-04-03T01:03:32;5.37;;;4.53;;
16326;SDS011;34812;49.846;9.610;2023-04-03T01:04:37;4.83;;;4.30;;
16326;SDS011;34812;49.846;9.610;2023-04-03T01:05:39;5.33;;;3.83;;
16326;SDS011;34812;49.846;9.610;2023-04-03T01:06:41;4.77;;;4.00;;
16326;SDS011;34812;49.846;9.610;2023-04-03T01:07:42;5.50;;;3.80;;
16326;SDS011;34812;49.846;9.610;2023-04-03T01:08:45;4.30;;;3.90;;
16326;SDS011;34812;49.846;9.610;2023-04-03T01:09:53;5.07;;;4.00;;
16326;SDS011;34812;49.846;9.610;2023-04-03T01:10:57;4.03;;;3.67;;
16326;SDS011;34812;49.846;9.610;2023-04-03T01:12:12;5.60;;;4.27;;
16326;SDS011;34812;49.846;9.610;2023-04-03T01:13:18;4.27;;;3.87;;
16326;SDS011;34812;49.846;9.610;2023-04-03T01:14:22;4.47;;;4.07;;
16326;SDS011;34812;49.846;9.610;2023-04-03T01:15:23;4.70;;;4.30;;
16326;SDS011;34812;49.846;9.610;2023-04-03T01:16:26;5.37;;;4.40;;
16326;SDS011;34812;49.846;9.610;2023-04-03T01:17:32;5.13;;;4.03;;
16326;SDS011;34812;49.846;9.610;2023-04-03T01:18:36;5.57;;;4.33;;
16326;SDS011;34812;49.846;9.610;2023-04-03T01:19:39;6.70;;;4.40;;
16326;SDS011;34812;49.846;9.610;2023-04-03T01:20:50;4.20;;;3.80;;
16326;SDS011;34812;49.846;9.610;2023-04-03T01:22:14;5.53;;;3.90;;
16326;SDS011;34812;49.846;9.610;2023-04-03T01:23:25;5.23;;;3.73;;
16326;SDS011;34812;49.846;9.610;2023-04-03T01:24:33;3.97;;;3.57;;
16326;SDS011;34812;49.846;9.610;2023-04-03T01:25:42;4.27;;;3.80;;
16326;SDS011;34812;49.846;9.610;2023-04-03T01:26:44;4.37;;;3.97;;
16326;SDS011;34812;49.846;9.610;2023-04-03T01:27:46;5.03;;;3.40;;
16326;SDS011;34812;49.846;9.610;2023-04-03T01:28:47;4.10;;;3.70;;
16326;SDS011;34812;49.846;9.610;2023-04-03T01:29:49;3.83;;;3.50;;
16326;SDS011;34812;49.846;9.610;2023-04-03T01:30:50;4.53;;;3.60;;
16326;SDS011;34812;49.846;9.610;2023-04-03T01:32:01;4.50;;;4.10;;
16326;SDS011;34812;49.846;9.610;2023-04-03T01:33:03;4.63;;;3.90;;
16326;SDS011;34812;49.846;9.610;2023-04-03T01:34:05;4.83;;;4.33;;
16326;SDS011;34812;49.846;9.610;2023-04-03T01:35:07;4.47;;;4.07;;
16326;SDS011;34812;49.846;9.610;2023-04-03T01:36:13;4.20;;;3.80;;
16326;SDS011;34812;49.846;9.610;2023-04-03T01:37:15;4.93;;;3.60;;
16326;SDS011;34812;49.846;9.610;2023-04-03T01:38:17;5.93;;;3.87;;
16326;SDS011;34812;49.846;9.610;2023-04-03T01:39:18;4.40;;;3.90;;
16326;SDS011;34812;49.846;9.610;2023-04-03T01:40:20;4.20;;;3.60;;
16326;SDS011;34812;49.846;9.610;2023-04-03T01:41:21;4.07;;;3.63;;
16326;SDS011;34812;49.846;9.610;2023-04-03T01:42:26;5.37;;;3.57;;
16326;SDS011;34812;49.846;9.610;2023-04-03T01:43:26;4.13;;;3.73;;
16326;SDS011;34812;49.846;9.610;2023-04-03T01:44:28;4.70;;;3.60;;
16326;SDS011;34812;49.846;9.610;2023-04-03T01:45:29;4.63;;;4.23;;
16326;SDS011;34812;49.846;9.610;2023-04-03T01:46:31;4.87;;;3.90;;
16326;SDS011;34812;49.846;9.610;2023-04-03T01:47:33;5.77;;;4.20;;
16326;SDS011;34812;49.846;9.610;2023-04-03T01:48:35;4.80;;;4.50;;
16326;SDS011;34812;49.846;9.610;2023-04-03T01:49:36;4.10;;;3.80;;
16326;SDS011;34812;49.846;9.610;2023-04-03T01:50:38;5.27;;;4.30;;
16326;SDS011;34812;49.846;9.610;2023-04-03T01:51:40;5.40;;;4.13;;
16326;SDS011;34812;49.846;9.610;2023-04-03T01:52:42;4.10;;;3.70;;
16326;SDS011;34812;49.846;9.610;2023-04-03T01:53:43;6.23;;;4.07;;
16326;SDS011;34812;49.846;9.610;2023-04-03T01:54:44;5.20;;;4.70;;
16326;SDS011;34812;49.846;9.610;2023-04-03T01:55:45;4.33;;;4.00;;
16326;SDS011;34812;49.846;9.610;2023-04-03T01:56:47;3.97;;;3.67;;
16326;SDS011;34812;49.846;9.610;2023-04-03T01:57:48;3.90;;;3.60;;
16326;SDS011;34812;49.846;9.610;2023-04-03T01:58:50;3.90;;;3.50;;
16326;SDS011;34812;49.846;9.610;2023-04-03T01:59:51;4.50;;;4.10;;
16326;SDS011;34812;49.846;9.610;2023-04-03T02:00:53;5.27;;;3.87;;
16326;SDS011;34812;49.846;9.610;2023-04-03T02:01:54;4.57;;;4.07;;
16326;SDS011;34812;49.846;9.610;2023-04-03T02:02:57;3.97;;;3.57;;
16326;SDS011;34812;49.846;9.610;2023-04-03T02:03:59;5.47;;;4.03;;
16326;SDS011;34812;49.846;9.610;2023-04-03T02:05:01;5.03;;;4.50;;
16326;SDS011;34812;49.846;9.610;2023-04-03T02:06:02;5.23;;;4.10;;
16326;SDS011;34812;49.846;9.610;2023-04-03T02:07:04;4.00;;;3.70;;
16326;SDS011;34812;49.846;9.610;2023-04-03T02:08:05;4.57;;;3.87;;
16326;SDS011;34812;49.846;9.610;2023-04-03T02:09:08;4.23;;;3.80;;
16326;SDS011;34812;49.846;9.610;2023-04-03T02:10:09;4.10;;;3.70;;
16326;SDS011;34812;49.846;9.610;2023-04-03T02:11:11;4.50;;;4.10;;
16326;SDS011;34812;49.846;9.610;2023-04-03T02:12:12;4.90;;;4.47;;
16326;SDS011;34812;49.846;9.610;2023-04-03T02:13:14;4.57;;;4.17;;
16326;SDS011;34812;49.846;9.610;2023-04-03T02:14:15;5.33;;;4.83;;
16326;SDS011;34812;49.846;9.610;2023-04-03T02:15:16;5.83;;;4.60;;
16326;SDS011;34812;49.846;9.610;2023-04-03T02:16:17;6.53;;;4.33;;
16326;SDS011;34812;49.846;9.610;2023-04-03T02:17:19;5.70;;;3.87;;
16326;SDS011;34812;49.846;9.610;2023-04-03T02:18:22;4.73;;;4.10;;
16326;SDS011;34812;49.846;9.610;2023-04-03T02:19:24;4.53;;;3.93;;
16326;SDS011;34812;49.846;9.610;2023-04-03T02:20:25;5.10;;;4.13;;
16326;SDS011;34812;49.846;9.610;2023-04-03T02:21:27;4.67;;;4.27;;
16326;SDS011;34812;49.846;9.610;2023-04-03T02:22:28;4.70;;;4.30;;
16326;SDS011;34812;49.846;9.610;2023-04-03T02:23:30;4.63;;;4.23;;
16326;SDS011;34812;49.846;9.610;2023-04-03T02:24:31;6.07;;;4.73;;
16326;SDS011;34812;49.846;9.610;2023-04-03T02:25:33;4.27;;;3.93;;
16326;SDS011;34812;49.846;9.610;2023-04-03T02:26:34;4.60;;;4.20;;
16326;SDS011;34812;49.846;9.610;2023-04-03T02:27:36;4.70;;;4.30;;
16326;SDS011;34812;49.846;9.610;2023-04-03T02:28:37;5.17;;;4.67;;
16326;SDS011;34812;49.846;9.610;2023-04-03T02:29:41;6.10;;;4.87;;
16326;SDS011;34812;49.846;9.610;2023-04-03T02:30:41;4.80;;;4.40;;
16326;SDS011;34812;49.846;9.610;2023-04-03T02:31:44;4.87;;;4.47;;
16326;SDS011;34812;49.846;9.610;2023-04-03T02:32:45;5.03;;;4.30;;
16326;SDS011;34812;49.846;9.610;2023-04-03T02:33:49;5.30;;;4.80;;
16326;SDS011;34812;49.846;9.610;2023-04-03T02:34:50;8.70;;;5.00;;
16326;SDS011;34812;49.846;9.610;2023-04-03T02:35:52;4.70;;;4.30;;
16326;SDS011;34812;49.846;9.610;2023-04-03T02:36:55;4.00;;;3.70;;
16326;SDS011;34812;49.846;9.610;2023-04-03T02:37:58;4.37;;;3.97;;
16326;SDS011;34812;49.846;9.610;2023-04-03T02:38:59;4.67;;;4.23;;
16326;SDS011;34812;49.846;9.610;2023-04-03T02:40:00;4.63;;;4.30;;
16326;SDS011;34812;49.846;9.610;2023-04-03T02:41:02;5.90;;;4.80;;
16326;SDS011;34812;49.846;9.610;2023-04-03T02:42:05;4.43;;;4.10;;
16326;SDS011;34812;49.846;9.610;2023-04-03T02:43:07;4.27;;;3.97;;
16326;SDS011;34812;49.846;9.610;2023-04-03T02:44:11;5.00;;;4.57;;
16326;SDS011;34812;49.846;9.610;2023-04-03T02:45:12;4.50;;;4.10;;
16326;SDS011;34812;49.846;9.610;2023-04-03T02:46:14;4.80;;;4.40;;
16326;SDS011;34812;49.846;9.610;2023-04-03T02:47:15;6.00;;;4.00;;
16326;SDS011;34812;49.846;9.610;2023-04-03T02:48:17;4.30;;;4.00;;
16326;SDS011;34812;49.846;9.610;2023-04-03T02:49:19;3.90;;;3.60;;
16326;SDS011;34812;49.846;9.610;2023-04-03T02:50:21;5.53;;;4.37;;
16326;SDS011;34812;49.846;9.610;2023-04-03T02:51:22;5.30;;;4.10;;
16326;SDS011;34812;49.846;9.610;2023-04-03T02:52:25;4.87;;;4.07;;
16326;SDS011;34812;49.846;9.610;2023-04-03T02:53:29;4.47;;;4.00;;
16326;SDS011;34812;49.846;9.610;2023-04-03T02:54:32;4.00;;;3.60;;
16326;SDS011;34812;49.846;9.610;2023-04-03T02:55:36;4.40;;;4.00;;
16326;SDS011;34812;49.846;9.610;2023-04-03T02:56:38;4.80;;;4.33;;
16326;SDS011;34812;49.846;9.610;2023-04-03T02:57:39;8.13;;;4.27;;
16326;SDS011;34812;49.846;9.610;2023-04-03T02:58:41;3.90;;;3.60;;
16326;SDS011;34812;49.846;9.610;2023-04-03T02:59:42;4.67;;;4.27;;
16326;SDS011;34812;49.846;9.610;2023-04-03T03:00:45;4.97;;;4.47;;
16326;SDS011;34812;49.846;9.610;2023-04-03T03:01:46;4.90;;;4.43;;
16326;SDS011;34812;49.846;9.610;2023-04-03T03:02:48;5.37;;;4.73;;
16326;SDS011;34812;49.846;9.610;2023-04-03T03:03:49;4.93;;;4.40;;
16326;SDS011;34812;49.846;9.610;2023-04-03T03:04:52;5.47;;;4.97;;
16326;SDS011;34812;49.846;9.610;2023-04-03T03:06:00;6.80;;;5.37;;
16326;SDS011;34812;49.846;9.610;2023-04-03T03:07:03;5.27;;;4.77;;
16326;SDS011;34812;49.846;9.610;2023-04-03T03:08:05;5.77;;;5.27;;
16326;SDS011;34812;49.846;9.610;2023-04-03T03:09:07;6.17;;;5.00;;
16326;SDS011;34812;49.846;9.610;2023-04-03T03:10:08;6.80;;;5.30;;
16326;SDS011;34812;49.846;9.610;2023-04-03T03:11:10;5.37;;;4.83;;
16326;SDS011;34812;49.846;9.610;2023-04-03T03:12:11;6.13;;;5.43;;
16326;SDS011;34812;49.846;9.610;2023-04-03T03:13:13;5.97;;;5.10;;
16326;SDS011;34812;49.846;9.610;2023-04-03T03:14:14;5.13;;;4.70;;
16326;SDS011;34812;49.846;9.610;2023-04-03T03:15:15;5.30;;;4.80;;
16326;SDS011;34812;49.846;9.610;2023-04-03T03:16:17;5.97;;;5.13;;
16326;SDS011;34812;49.846;9.610;2023-04-03T03:17:19;5.63;;;5.20;;
16326;SDS011;34812;49.846;9.610;2023-04-03T03:18:20;5.13;;;4.80;;
16326;SDS011;34812;49.846;9.610;2023-04-03T03:19:23;6.30;;;5.03;;
16326;SDS011;34812;49.846;9.610;2023-04-03T03:20:25;5.70;;;5.10;;
16326;SDS011;34812;49.846;9.610;2023-04-03T03:21:27;5.20;;;4.80;;
16326;SDS011;34812;49.846;9.610;2023-04-03T03:22:28;5.60;;;5.10;;
16326;SDS011;34812;49.846;9.610;2023-04-03T03:23:30;5.33;;;4.93;;
16326;SDS011;34812;49.846;9.610;2023-04-03T03:24:32;5.90;;;5.30;;
16326;SDS011;34812;49.846;9.610;2023-04-03T03:25:37;5.67;;;5.17;;
16326;SDS011;34812;49.846;9.610;2023-04-03T03:26:38;5.97;;;5.13;;
16326;SDS011;34812;49.846;9.610;2023-04-03T03:27:40;5.33;;;4.83;;
16326;SDS011;34812;49.846;9.610;2023-04-03T03:28:41;5.50;;;5.00;;
16326;SDS011;34812;49.846;9.610;2023-04-03T03:29:45;5.07;;;4.67;;
16326;SDS011;34812;49.846;9.610;2023-04-03T03:30:47;5.90;;;5.40;;
16326;SDS011;34812;49.846;9.610;2023-04-03T03:31:48;5.20;;;4.70;;
16326;SDS011;34812;49.846;9.610;2023-04-03T03:32:50;5.10;;;4.60;;
16326;SDS011;34812;49.846;9.610;2023-04-03T03:33:51;6.10;;;5.50;;
16326;SDS011;34812;49.846;9.610;2023-04-03T03:34:53;4.90;;;4.40;;
16326;SDS011;34812;49.846;9.610;2023-04-03T03:35:55;5.97;;;4.93;;
16326;SDS011;34812;49.846;9.610;2023-04-03T03:36:57;5.93;;;4.77;;
16326;SDS011;34812;49.846;9.610;2023-04-03T03:37:59;5.20;;;4.57;;
16326;SDS011;34812;49.846;9.610;2023-04-03T03:39:00;7.93;;;5.07;;
16326;SDS011;34812;49.846;9.610;2023-04-03T03:40:03;5.50;;;4.97;;
16326;SDS011;34812;49.846;9.610;2023-04-03T03:41:05;5.50;;;4.63;;
16326;SDS011;34812;49.846;9.610;2023-04-03T03:42:08;5.20;;;4.70;;
16326;SDS011;34812;49.846;9.610;2023-04-03T03:43:09;4.80;;;4.27;;
16326;SDS011;34812;49.846;9.610;2023-04-03T03:44:11;5.20;;;4.70;;
16326;SDS011;34812;49.846;9.610;2023-04-03T03:45:13;5.80;;;5.27;;
16326;SDS011;34812;49.846;9.610;2023-04-03T03:46:15;4.67;;;4.27;;
16326;SDS011;34812;49.846;9.610;2023-04-03T03:47:17;5.03;;;4.63;;
16326;SDS011;34812;49.846;9.610;2023-04-03T03:48:18;7.50;;;4.97;;
16326;SDS011;34812;49.846;9.610;2023-04-03T03:49:21;5.10;;;4.60;;
16326;SDS011;34812;49.846;9.610;2023-04-03T03:50:22;5.20;;;4.70;;
16326;SDS011;34812;49.846;9.610;2023-04-03T03:51:25;4.80;;;4.30;;
16326;SDS011;34812;49.846;9.610;2023-04-03T03:52:28;4.40;;;4.10;;
16326;SDS011;34812;49.846;9.610;2023-04-03T03:53:30;5.57;;;4.27;;
16326;SDS011;34812;49.846;9.610;2023-04-03T03:54:36;6.20;;;4.53;;
16326;SDS011;34812;49.846;9.610;2023-04-03T03:55:38;4.80;;;4.27;;
16326;SDS011;34812;49.846;9.610;2023-04-03T03:56:39;7.23;;;4.27;;
16326;SDS011;34812;49.846;9.610;2023-04-03T03:57:41;5.27;;;4.27;;
16326;SDS011;34812;49.846;9.610;2023-04-03T03:58:43;6.73;;;4.07;;
16326;SDS011;34812;49.846;9.610;2023-04-03T03:59:44;4.77;;;4.17;;
16326;SDS011;34812;49.846;9.610;2023-04-03T04:00:47;6.70;;;4.07;;
16326;SDS011;34812;49.846;9.610;2023-04-03T04:01:48;4.97;;;4.47;;
16326;SDS011;34812;49.846;9.610;2023-04-03T04:02:50;4.90;;;3.63;;
16326;SDS011;34812;49.846;9.610;2023-04-03T04:03:54;5.27;;;4.00;;
16326;SDS011;34812;49.846;9.610;2023-04-03T04:04:59;4.73;;;3.60;;
16326;SDS011;34812;49.846;9.610;2023-04-03T04:06:00;4.23;;;3.70;;
16326;SDS011;34812;49.846;9.610;2023-04-03T04:07:03;4.93;;;3.70;;
16326;SDS011;34812;49.846;9.610;2023-04-03T04:08:06;5.13;;;3.47;;
16326;SDS011;34812;49.846;9.610;2023-04-03T04:09:08;6.33;;;3.60;;
16326;SDS011;34812;49.846;9.610;2023-04-03T04:10:09;4.20;;;3.80;;
16326;SDS011;34812;49.846;9.610;2023-04-03T04:11:11;5.13;;;3.50;;
16326;SDS011;34812;49.846;9.610;2023-04-03T04:12:14;5.60;;;4.03;;
16326;SDS011;34812;49.846;9.610;2023-04-03T04:13:16;5.00;;;3.83;;
16326;SDS011;34812;49.846;9.610;2023-04-03T04:14:17;3.97;;;3.50;;
16326;SDS011;34812;49.846;9.610;2023-04-03T04:15:20;6.90;;;3.67;;
16326;SDS011;34812;49.846;9.610;2023-04-03T04:16:22;6.20;;;3.90;;
16326;SDS011;34812;49.846;9.610;2023-04-03T04:17:24;6.20;;;3.70;;
16326;SDS011;34812;49.846;9.610;2023-04-03T04:18:26;8.93;;;3.80;;
16326;SDS011;34812;49.846;9.610;2023-04-03T04:19:27;4.03;;;3.67;;
16326;SDS011;34812;49.846;9.610;2023-04-03T04:20:28;4.67;;;3.27;;
16326;SDS011;34812;49.846;9.610;2023-04-03T04:21:30;5.70;;;3.87;;
16326;SDS011;34812;49.846;9.610;2023-04-03T04:22:33;4.17;;;3.10;;
16326;SDS011;34812;49.846;9.610;2023-04-03T04:23:34;4.97;;;3.10;;
16326;SDS011;34812;49.846;9.610;2023-04-03T04:24:37;5.50;;;3.80;;
16326;SDS011;34812;49.846;9.610;2023-04-03T04:25:38;6.00;;;3.47;;
16326;SDS011;34812;49.846;9.610;2023-04-03T04:26:40;9.20;;;3.70;;
16326;SDS011;34812;49.846;9.610;2023-04-03T04:27:43;7.07;;;3.70;;
16326;SDS011;34812;49.846;9.610;2023-04-03T04:28:48;5.03;;;3.30;;
16326;SDS011;34812;49.846;9.610;2023-04-03T04:29:50;5.83;;;3.37;;
16326;SDS011;34812;49.846;9.610;2023-04-03T04:30:53;7.73;;;3.87;;
16326;SDS011;34812;49.846;9.610;2023-04-03T04:31:56;5.27;;;3.30;;
16326;SDS011;34812;49.846;9.610;2023-04-03T04:32:58;5.60;;;3.40;;
16326;SDS011;34812;49.846;9.610;2023-04-03T04:33:59;3.97;;;3.30;;
16326;SDS011;34812;49.846;9.610;2023-04-03T04:35:01;5.67;;;3.50;;
16326;SDS011;34812;49.846;9.610;2023-04-03T04:36:05;5.63;;;3.43;;
16326;SDS011;34812;49.846;9.610;2023-04-03T04:37:07;5.70;;;3.40;;
16326;SDS011;34812;49.846;9.610;2023-04-03T04:38:09;4.17;;;3.27;;
16326;SDS011;34812;49.846;9.610;2023-04-03T04:39:11;3.80;;;3.40;;
16326;SDS011;34812;49.846;9.610;2023-04-03T04:40:13;7.00;;;3.00;;
16326;SDS011;34812;49.846;9.610;2023-04-03T04:41:15;7.13;;;3.37;;
16326;SDS011;34812;49.846;9.610;2023-04-03T04:42:16;6.10;;;3.50;;
16326;SDS011;34812;49.846;9.610;2023-04-03T04:43:20;6.57;;;3.73;;
16326;SDS011;34812;49.846;9.610;2023-04-03T04:44:24;6.37;;;3.50;;
16326;SDS011;34812;49.846;9.610;2023-04-03T04:45:26;4.87;;;3.30;;
16326;SDS011;34812;49.846;9.610;2023-04-03T04:46:27;6.47;;;3.83;;
16326;SDS011;34812;49.846;9.610;2023-04-03T04:47:31;5.67;;;3.67;;
16326;SDS011;34812;49.846;9.610;2023-04-03T04:48:32;8.37;;;3.53;;
16326;SDS011;34812;49.846;9.610;2023-04-03T04:49:35;6.40;;;3.40;;
16326;SDS011;34812;49.846;9.610;2023-04-03T04:50:37;6.30;;;3.80;;
16326;SDS011;34812;49.846;9.610;2023-04-03T04:51:38;5.97;;;3.40;;
16326;SDS011;34812;49.846;9.610;2023-04-03T04:52:39;5.33;;;3.50;;
16326;SDS011;34812;49.846;9.610;2023-04-03T04:53:43;4.87;;;3.13;;
16326;SDS011;34812;49.846;9.610;2023-04-03T04:54:47;6.40;;;3.53;;
16326;SDS011;34812;49.846;9.610;2023-04-03T04:55:49;7.23;;;3.77;;
16326;SDS011;34812;49.846;9.610;2023-04-03T04:56:50;4.07;;;3.30;;
16326;SDS011;34812;49.846;9.610;2023-04-03T04:57:52;6.33;;;3.30;;
16326;SDS011;34812;49.846;9.610;2023-04-03T04:58:54;5.27;;;3.23;;
16326;SDS011;34812;49.846;9.610;2023-04-03T04:59:57;4.90;;;3.63;;
16326;SDS011;34812;49.846;9.610;2023-04-03T05:00:59;5.37;;;3.73;;
16326;SDS011;34812;49.846;9.610;2023-04-03T05:02:00;6.53;;;3.93;;
16326;SDS011;34812;49.846;9.610;2023-04-03T05:03:02;4.67;;;3.37;;
16326;SDS011;34812;49.846;9.610;2023-04-03T05:04:03;5.00;;;3.80;;
16326;SDS011;34812;49.846;9.610;2023-04-03T05:05:05;4.43;;;3.63;;
16326;SDS011;34812;49.846;9.610;2023-04-03T05:06:07;5.30;;;4.43;;
16326;SDS011;34812;49.846;9.610;2023-04-03T05:07:11;7.57;;;4.53;;
16326;SDS011;34812;49.846;9.610;2023-04-03T05:08:12;6.07;;;3.77;;
16326;SDS011;34812;49.846;9.610;2023-04-03T05:09:17;5.90;;;3.80;;
16326;SDS011;34812;49.846;9.610;2023-04-03T05:10:20;5.40;;;3.53;;
16326;SDS011;34812;49.846;9.610;2023-04-03T05:11:22;6.27;;;3.90;;
16326;SDS011;34812;49.846;9.610;2023-04-03T05:12:25;5.97;;;3.40;;
16326;SDS011;34812;49.846;9.610;2023-04-03T05:13:31;6.67;;;4.17;;
16326;SDS011;34812;49.846;9.610;2023-04-03T05:14:32;6.43;;;4.43;;
16326;SDS011;34812;49.846;9.610;2023-04-03T05:15:38;5.93;;;3.43;;
16326;SDS011;34812;49.846;9.610;2023-04-03T05:16:39;4.43;;;4.07;;
16326;SDS011;34812;49.846;9.610;2023-04-03T05:17:41;8.53;;;3.83;;
16326;SDS011;34812;49.846;9.610;2023-04-03T05:18:45;6.77;;;3.80;;
16326;SDS011;34812;49.846;9.610;2023-04-03T05:19:52;7.07;;;4.30;;
16326;SDS011;34812;49.846;9.610;2023-04-03T05:20:55;4.30;;;3.73;;
16326;SDS011;34812;49.846;9.610;2023-04-03T05:21:59;6.67;;;4.17;;
16326;SDS011;34812;49.846;9.610;2023-04-03T05:23:00;5.93;;;3.87;;
16326;SDS011;34812;49.846;9.610;2023-04-03T05:24:02;6.13;;;4.17;;
16326;SDS011;34812;49.846;9.610;2023-04-03T05:25:08;6.10;;;4.27;;
16326;SDS011;34812;49.846;9.610;2023-04-03T05:26:11;8.57;;;4.80;;
16326;SDS011;34812;49.846;9.610;2023-04-03T05:27:12;4.63;;;3.83;;
16326;SDS011;34812;49.846;9.610;2023-04-03T05:28:17;6.00;;;4.10;;
16326;SDS011;34812;49.846;9.610;2023-04-03T05:29:20;6.70;;;4.00;;
16326;SDS011;34812;49.846;9.610;2023-04-03T05:30:21;6.03;;;3.93;;
16326;SDS011;34812;49.846;9.610;2023-04-03T05:31:23;4.43;;;3.87;;
16326;SDS011;34812;49.846;9.610;2023-04-03T05:32:25;5.37;;;4.03;;
16326;SDS011;34812;49.846;9.610;2023-04-03T05:33:37;5.73;;;3.70;;
16326;SDS011;34812;49.846;9.610;2023-04-03T05:34:40;4.10;;;3.80;;
16326;SDS011;34812;49.846;9.610;2023-04-03T05:35:42;4.20;;;3.50;;
16326;SDS011;34812;49.846;9.610;2023-04-03T05:36:46;6.50;;;4.00;;
16326;SDS011;34812;49.846;9.610;2023-04-03T05:37:49;4.77;;;3.50;;
16326;SDS011;34812;49.846;9.610;2023-04-03T05:38:50;5.00;;;3.20;;
16326;SDS011;34812;49.846;9.610;2023-04-03T05:39:53;5.87;;;4.00;;
16326;SDS011;34812;49.846;9.610;2023-04-03T05:40:55;5.53;;;3.63;;
16326;SDS011;34812;49.846;9.610;2023-04-03T05:41:57;6.13;;;4.30;;
16326;SDS011;34812;49.846;9.610;2023-04-03T05:42:59;4.03;;;3.63;;
16326;SDS011;34812;49.846;9.610;2023-04-03T05:44:03;5.37;;;3.40;;
16326;SDS011;34812;49.846;9.610;2023-04-03T05:45:05;5.33;;;4.17;;
16326;SDS011;34812;49.846;9.610;2023-04-03T05:46:08;5.43;;;3.80;;
16326;SDS011;34812;49.846;9.610;2023-04-03T05:47:11;5.07;;;3.83;;
16326;SDS011;34812;49.846;9.610;2023-04-03T05:48:12;5.67;;;3.83;;
16326;SDS011;34812;49.846;9.610;2023-04-03T05:49:14;4.73;;;3.53;;
16326;SDS011;34812;49.846;9.610;2023-04-03T05:50:16;6.53;;;3.90;;
16326;SDS011;34812;49.846;9.610;2023-04-03T05:51:18;5.67;;;4.00;;
16326;SDS011;34812;49.846;9.610;2023-04-03T05:52:25;7.13;;;4.17;;
16326;SDS011;34812;49.846;9.610;2023-04-03T05:53:28;6.23;;;3.93;;
16326;SDS011;34812;49.846;9.610;2023-04-03T05:54:35;6.60;;;4.57;;
16326;SDS011;34812;49.846;9.610;2023-04-03T05:55:51;5.53;;;4.30;;
16326;SDS011;34812;49.846;9.610;2023-04-03T05:56:55;7.40;;;3.90;;
16326;SDS011;34812;49.846;9.610;2023-04-03T05:57:57;6.67;;;3.70;;
16326;SDS011;34812;49.846;9.610;2023-04-03T05:58:59;6.23;;;4.13;;
16326;SDS011;34812;49.846;9.610;2023-04-03T06:00:00;4.30;;;3.90;;
16326;SDS011;34812;49.846;9.610;2023-04-03T06:01:04;5.53;;;4.03;;
16326;SDS011;34812;49.846;9.610;2023-04-03T06:02:06;4.33;;;3.93;;
16326;SDS011;34812;49.846;9.610;2023-04-03T06:03:09;5.50;;;3.67;;
16326;SDS011;34812;49.846;9.610;2023-04-03T06:04:10;6.27;;;4.03;;
16326;SDS011;34812;49.846;9.610;2023-04-03T06:05:13;7.60;;;4.80;;
16326;SDS011;34812;49.846;9.610;2023-04-03T06:06:15;3.93;;;3.63;;
16326;SDS011;34812;49.846;9.610;2023-04-03T06:07:16;5.60;;;3.50;;
16326;SDS011;34812;49.846;9.610;2023-04-03T06:08:23;7.27;;;3.97;;
16326;SDS011;34812;49.846;9.610;2023-04-03T06:09:24;7.10;;;3.70;;
16326;SDS011;34812;49.846;9.610;2023-04-03T06:10:29;6.53;;;4.17;;
16326;SDS011;34812;49.846;9.610;2023-04-03T06:11:31;6.90;;;4.40;;
16326;SDS011;34812;49.846;9.610;2023-04-03T06:12:33;7.00;;;3.90;;
16326;SDS011;34812;49.846;9.610;2023-04-03T06:13:34;6.63;;;3.93;;
16326;SDS011;34812;49.846;9.610;2023-04-03T06:14:35;5.00;;;3.60;;
16326;SDS011;34812;49.846;9.610;2023-04-03T06:15:37;9.75;;;4.45;;
16326;SDS011;34812;49.846;9.610;2023-04-03T06:16:38;6.13;;;3.70;;